sensor_id;sensor_type;location;lat;lon;timestamp;temperature;humidity
4097;DHT22;2062;50.694;7.246;2023-04-03T00:01:39;4.80;54.80
4097;DHT22;2062;50.694;7.246;2023-04-03T00:04:06;4.80;54.70
4097;DHT22;2062;50.694;7.246;2023-04-03T00:06:33;4.80;54.50
4097;DHT22;2062;50.694;7.246;2023-04-03T00:09:01;4.80;54.60
4097;DHT22;2062;50.694;7.246;2023-04-03T00:11:29;4.80;54.70
4097;DHT22;2062;50.694;7.246;2023-04-03T00:13:56;4.80;54.80
4097;DHT22;2062;50.694;7.246;2023-04-03T00:16:23;4.80;54.90
4097;DHT22;2062;50.694;7.246;2023-04-03T00:18:50;5.00;55.20
4097;DHT22;2062;50.694;7.246;2023-04-03T00:21:17;4.80;55.20
4097;DHT22;2062;50.694;7.246;2023-04-03T00:23:43;4.80;55.20
4097;DHT22;2062;50.694;7.246;2023-04-03T00:26:11;4.80;55.30
4097;DHT22;2062;50.694;7.246;2023-04-03T00:28:39;4.90;55.40
4097;DHT22;2062;50.694;7.246;2023-04-03T00:31:06;4.80;55.40
4097;DHT22;2062;50.694;7.246;2023-04-03T00:33:33;4.80;55.30
4097;DHT22;2062;50.694;7.246;2023-04-03T00:36:05;4.80;55.20
4097;DHT22;2062;50.694;7.246;2023-04-03T00:38:32;4.80;55.20
4097;DHT22;2062;50.694;7.246;2023-04-03T00:40:59;4.80;55.20
4097;DHT22;2062;50.694;7.246;2023-04-03T00:43:27;4.80;55.30
4097;DHT22;2062;50.694;7.246;2023-04-03T00:45:56;4.90;55.30
4097;DHT22;2062;50.694;7.246;2023-04-03T00:48:26;4.90;55.30
4097;DHT22;2062;50.694;7.246;2023-04-03T00:50:54;4.80;55.30
4097;DHT22;2062;50.694;7.246;2023-04-03T00:53:23;4.80;55.30
4097;DHT22;2062;50.694;7.246;2023-04-03T00:55:53;4.80;55.30
4097;DHT22;2062;50.694;7.246;2023-04-03T00:58:25;4.80;55.30
4097;DHT22;2062;50.694;7.246;2023-04-03T01:00:58;4.80;55.20
4097;DHT22;2062;50.694;7.246;2023-04-03T01:03:25;4.80;55.10
4097;DHT22;2062;50.694;7.246;2023-04-03T01:05:52;4.80;55.30
4097;DHT22;2062;50.694;7.246;2023-04-03T01:08:19;4.80;55.20
4097;DHT22;2062;50.694;7.246;2023-04-03T01:10:46;4.80;55.00
4097;DHT22;2062;50.694;7.246;2023-04-03T01:13:22;4.70;54.90
4097;DHT22;2062;50.694;7.246;2023-04-03T01:15:49;4.80;55.70
4097;DHT22;2062;50.694;7.246;2023-04-03T01:18:18;4.70;55.10
4097;DHT22;2062;50.694;7.246;2023-04-03T01:21:09;4.70;55.10
4097;DHT22;2062;50.694;7.246;2023-04-03T01:23:52;4.70;55.30
4097;DHT22;2062;50.694;7.246;2023-04-03T01:26:24;4.70;55.40
4097;DHT22;2062;50.694;7.246;2023-04-03T01:28:53;4.70;55.40
4097;DHT22;2062;50.694;7.246;2023-04-03T01:31:25;4.70;55.40
4097;DHT22;2062;50.694;7.246;2023-04-03T01:33:55;4.70;55.50
4097;DHT22;2062;50.694;7.246;2023-04-03T01:36:24;4.70;55.60
4097;DHT22;2062;50.694;7.246;2023-04-03T01:38:51;4.70;55.60
4097;DHT22;2062;50.694;7.246;2023-04-03T01:41:22;4.70;55.70
4097;DHT22;2062;50.694;7.246;2023-04-03T01:43:49;4.60;55.60
4097;DHT22;2062;50.694;7.246;2023-04-03T01:46:16;4.70;55.70
4097;DHT22;2062;50.694;7.246;2023-04-03T01:48:49;4.60;55.60
4097;DHT22;2062;50.694;7.246;2023-04-03T01:51:18;4.60;55.70
4097;DHT22;2062;50.694;7.246;2023-04-03T01:53:45;4.60;55.60
4097;DHT22;2062;50.694;7.246;2023-04-03T01:56:11;4.50;55.70
4097;DHT22;2062;50.694;7.246;2023-04-03T01:58:39;4.50;55.70
4097;DHT22;2062;50.694;7.246;2023-04-03T02:01:10;4.50;55.80
4097;DHT22;2062;50.694;7.246;2023-04-03T02:03:37;4.50;55.70
4097;DHT22;2062;50.694;7.246;2023-04-03T02:06:04;4.50;55.70
4097;DHT22;2062;50.694;7.246;2023-04-03T02:08:39;4.50;55.80
4097;DHT22;2062;50.694;7.246;2023-04-03T02:11:09;4.50;55.80
4097;DHT22;2062;50.694;7.246;2023-04-03T02:13:36;4.50;55.80
4097;DHT22;2062;50.694;7.246;2023-04-03T02:16:09;4.40;55.70
4097;DHT22;2062;50.694;7.246;2023-04-03T02:18:37;4.50;55.90
4097;DHT22;2062;50.694;7.246;2023-04-03T02:21:07;4.40;55.90
4097;DHT22;2062;50.694;7.246;2023-04-03T02:23:35;4.40;56.60
4097;DHT22;2062;50.694;7.246;2023-04-03T02:26:04;4.40;56.00
4097;DHT22;2062;50.694;7.246;2023-04-03T02:28:31;4.40;56.00
4097;DHT22;2062;50.694;7.246;2023-04-03T02:30:58;4.40;56.10
4097;DHT22;2062;50.694;7.246;2023-04-03T02:33:25;4.30;56.10
4097;DHT22;2062;50.694;7.246;2023-04-03T02:35:53;4.30;56.80
4097;DHT22;2062;50.694;7.246;2023-04-03T02:38:20;4.30;56.20
4097;DHT22;2062;50.694;7.246;2023-04-03T02:40:49;4.30;56.20
4097;DHT22;2062;50.694;7.246;2023-04-03T02:43:16;4.30;56.30
4097;DHT22;2062;50.694;7.246;2023-04-03T02:45:43;4.20;56.20
4097;DHT22;2062;50.694;7.246;2023-04-03T02:48:10;4.20;56.20
4097;DHT22;2062;50.694;7.246;2023-04-03T02:50:37;4.20;56.20
4097;DHT22;2062;50.694;7.246;2023-04-03T02:53:04;4.20;56.30
4097;DHT22;2062;50.694;7.246;2023-04-03T02:55:31;4.20;56.30
4097;DHT22;2062;50.694;7.246;2023-04-03T02:57:59;4.10;56.40
4097;DHT22;2062;50.694;7.246;2023-04-03T03:00:26;4.10;56.40
4097;DHT22;2062;50.694;7.246;2023-04-03T03:02:53;4.10;56.40
4097;DHT22;2062;50.694;7.246;2023-04-03T03:05:19;4.10;56.40
4097;DHT22;2062;50.694;7.246;2023-04-03T03:07:47;4.00;56.30
4097;DHT22;2062;50.694;7.246;2023-04-03T03:10:14;4.00;56.30
4097;DHT22;2062;50.694;7.246;2023-04-03T03:12:41;4.00;56.20
4097;DHT22;2062;50.694;7.246;2023-04-03T03:15:10;3.90;56.20
4097;DHT22;2062;50.694;7.246;2023-04-03T03:17:37;3.90;56.20
4097;DHT22;2062;50.694;7.246;2023-04-03T03:20:05;3.90;56.30
4097;DHT22;2062;50.694;7.246;2023-04-03T03:22:32;3.80;56.20
4097;DHT22;2062;50.694;7.246;2023-04-03T03:24:59;3.80;56.30
4097;DHT22;2062;50.694;7.246;2023-04-03T03:27:26;3.80;57.00
4097;DHT22;2062;50.694;7.246;2023-04-03T03:29:53;3.70;56.30
4097;DHT22;2062;50.694;7.246;2023-04-03T03:32:21;3.70;56.40
4097;DHT22;2062;50.694;7.246;2023-04-03T03:34:48;3.70;56.30
4097;DHT22;2062;50.694;7.246;2023-04-03T03:37:15;3.60;56.20
4097;DHT22;2062;50.694;7.246;2023-04-03T03:39:42;3.60;56.40
4097;DHT22;2062;50.694;7.246;2023-04-03T03:42:08;3.60;56.30
4097;DHT22;2062;50.694;7.246;2023-04-03T03:44:36;3.50;56.30
4097;DHT22;2062;50.694;7.246;2023-04-03T03:47:03;3.50;56.40
4097;DHT22;2062;50.694;7.246;2023-04-03T03:49:32;3.40;56.30
4097;DHT22;2062;50.694;7.246;2023-04-03T03:51:59;3.40;56.40
4097;DHT22;2062;50.694;7.246;2023-04-03T03:54:26;3.30;56.40
4097;DHT22;2062;50.694;7.246;2023-04-03T03:56:53;3.30;56.40
4097;DHT22;2062;50.694;7.246;2023-04-03T03:59:20;3.30;56.40
4097;DHT22;2062;50.694;7.246;2023-04-03T04:01:47;3.30;56.40
4097;DHT22;2062;50.694;7.246;2023-04-03T04:04:14;3.20;56.30
4097;DHT22;2062;50.694;7.246;2023-04-03T04:06:42;3.20;56.30
4097;DHT22;2062;50.694;7.246;2023-04-03T04:09:09;3.30;56.40
4097;DHT22;2062;50.694;7.246;2023-04-03T04:11:36;3.10;56.40
4097;DHT22;2062;50.694;7.246;2023-04-03T04:14:05;3.10;56.40
4097;DHT22;2062;50.694;7.246;2023-04-03T04:16:32;3.00;56.20
4097;DHT22;2062;50.694;7.246;2023-04-03T04:18:58;3.00;56.20
4097;DHT22;2062;50.694;7.246;2023-04-03T04:21:25;2.90;56.40
4097;DHT22;2062;50.694;7.246;2023-04-03T04:23:53;2.90;56.30
4097;DHT22;2062;50.694;7.246;2023-04-03T04:26:20;2.80;56.20
4097;DHT22;2062;50.694;7.246;2023-04-03T04:28:47;2.80;56.90
4097;DHT22;2062;50.694;7.246;2023-04-03T04:31:14;2.80;56.30
4097;DHT22;2062;50.694;7.246;2023-04-03T04:33:41;2.70;56.40
4097;DHT22;2062;50.694;7.246;2023-04-03T04:36:08;2.70;56.40
4097;DHT22;2062;50.694;7.246;2023-04-03T04:38:34;2.60;56.40
4097;DHT22;2062;50.694;7.246;2023-04-03T04:41:03;2.60;56.40
4097;DHT22;2062;50.694;7.246;2023-04-03T04:43:29;2.60;56.30
4097;DHT22;2062;50.694;7.246;2023-04-03T04:46:04;2.50;56.40
4097;DHT22;2062;50.694;7.246;2023-04-03T04:48:32;2.40;56.50
4097;DHT22;2062;50.694;7.246;2023-04-03T04:50:59;2.40;56.50
4097;DHT22;2062;50.694;7.246;2023-04-03T04:53:26;2.30;56.60
4097;DHT22;2062;50.694;7.246;2023-04-03T04:55:53;2.30;56.60
4097;DHT22;2062;50.694;7.246;2023-04-03T04:58:22;2.30;56.60
4097;DHT22;2062;50.694;7.246;2023-04-03T05:00:48;2.30;56.60
4097;DHT22;2062;50.694;7.246;2023-04-03T05:03:16;2.20;56.60
4097;DHT22;2062;50.694;7.246;2023-04-03T05:05:43;2.20;56.60
4097;DHT22;2062;50.694;7.246;2023-04-03T05:08:10;2.10;56.90
4097;DHT22;2062;50.694;7.246;2023-04-03T05:10:37;2.10;56.90
4097;DHT22;2062;50.694;7.246;2023-04-03T05:13:06;2.10;56.60
4097;DHT22;2062;50.694;7.246;2023-04-03T05:15:34;2.10;56.70
4097;DHT22;2062;50.694;7.246;2023-04-03T05:18:01;2.00;57.50
4097;DHT22;2062;50.694;7.246;2023-04-03T05:20:28;2.00;56.70
4097;DHT22;2062;50.694;7.246;2023-04-03T05:22:55;2.00;56.60
4097;DHT22;2062;50.694;7.246;2023-04-03T05:25:22;2.00;56.80
4097;DHT22;2062;50.694;7.246;2023-04-03T05:27:49;2.00;57.00
4097;DHT22;2062;50.694;7.246;2023-04-03T05:30:16;2.00;56.90
4097;DHT22;2062;50.694;7.246;2023-04-03T05:32:45;2.00;56.70
4097;DHT22;2062;50.694;7.246;2023-04-03T05:35:12;2.00;56.70
4097;DHT22;2062;50.694;7.246;2023-04-03T05:37:39;2.00;56.60
4097;DHT22;2062;50.694;7.246;2023-04-03T05:40:07;2.00;56.50
4097;DHT22;2062;50.694;7.246;2023-04-03T05:42:35;2.00;56.80
4097;DHT22;2062;50.694;7.246;2023-04-03T05:45:02;2.00;56.90
4097;DHT22;2062;50.694;7.246;2023-04-03T05:47:28;2.00;56.90
4097;DHT22;2062;50.694;7.246;2023-04-03T05:49:57;2.00;56.80
4097;DHT22;2062;50.694;7.246;2023-04-03T05:52:27;1.90;56.90
4097;DHT22;2062;50.694;7.246;2023-04-03T05:54:54;2.00;57.00
4097;DHT22;2062;50.694;7.246;2023-04-03T05:57:22;2.00;57.00
4097;DHT22;2062;50.694;7.246;2023-04-03T05:59:49;2.00;56.90
4097;DHT22;2062;50.694;7.246;2023-04-03T06:02:18;2.00;56.90
4097;DHT22;2062;50.694;7.246;2023-04-03T06:04:45;2.00;56.90
4097;DHT22;2062;50.694;7.246;2023-04-03T06:07:16;2.00;56.90
4097;DHT22;2062;50.694;7.246;2023-04-03T06:09:45;2.00;56.80
4097;DHT22;2062;50.694;7.246;2023-04-03T06:12:11;2.00;56.70
4097;DHT22;2062;50.694;7.246;2023-04-03T06:14:38;2.00;56.80
4097;DHT22;2062;50.694;7.246;2023-04-03T06:17:05;2.00;57.40
4097;DHT22;2062;50.694;7.246;2023-04-03T06:19:34;2.10;56.80
4097;DHT22;2062;50.694;7.246;2023-04-03T06:22:01;2.10;56.70
4097;DHT22;2062;50.694;7.246;2023-04-03T06:24:29;2.10;56.90
4097;DHT22;2062;50.694;7.246;2023-04-03T06:26:57;2.10;56.80
4097;DHT22;2062;50.694;7.246;2023-04-03T06:29:24;2.20;56.70
4097;DHT22;2062;50.694;7.246;2023-04-03T06:31:51;2.20;56.80
4097;DHT22;2062;50.694;7.246;2023-04-03T06:34:18;2.20;56.70
4097;DHT22;2062;50.694;7.246;2023-04-03T06:36:45;2.20;56.80
4097;DHT22;2062;50.694;7.246;2023-04-03T06:39:14;2.30;56.80
4097;DHT22;2062;50.694;7.246;2023-04-03T06:41:43;2.30;56.70
4097;DHT22;2062;50.694;7.246;2023-04-03T06:44:10;2.30;56.80
4097;DHT22;2062;50.694;7.246;2023-04-03T06:46:39;2.40;56.80
4097;DHT22;2062;50.694;7.246;2023-04-03T06:49:05;2.50;56.80
4097;DHT22;2062;50.694;7.246;2023-04-03T06:51:34;2.60;56.80
4097;DHT22;2062;50.694;7.246;2023-04-03T06:54:03;2.80;56.80
4097;DHT22;2062;50.694;7.246;2023-04-03T06:56:30;2.90;56.70
4097;DHT22;2062;50.694;7.246;2023-04-03T06:58:58;3.10;56.80
4097;DHT22;2062;50.694;7.246;2023-04-03T07:01:26;3.40;56.80
4097;DHT22;2062;50.694;7.246;2023-04-03T07:03:54;3.50;56.90
4097;DHT22;2062;50.694;7.246;2023-04-03T07:06:22;3.80;57.10
4097;DHT22;2062;50.694;7.246;2023-04-03T07:08:49;4.10;57.40
4097;DHT22;2062;50.694;7.246;2023-04-03T07:11:16;4.30;57.40
4097;DHT22;2062;50.694;7.246;2023-04-03T07:13:43;4.50;57.40
4097;DHT22;2062;50.694;7.246;2023-04-03T07:16:11;4.80;57.50
4097;DHT22;2062;50.694;7.246;2023-04-03T07:18:38;5.00;56.70
4097;DHT22;2062;50.694;7.246;2023-04-03T07:21:05;5.30;56.30
4097;DHT22;2062;50.694;7.246;2023-04-03T07:23:32;5.60;56.00
4097;DHT22;2062;50.694;7.246;2023-04-03T07:25:59;5.80;55.80
4097;DHT22;2062;50.694;7.246;2023-04-03T07:28:26;6.10;55.80
4097;DHT22;2062;50.694;7.246;2023-04-03T07:30:58;6.40;55.00
4097;DHT22;2062;50.694;7.246;2023-04-03T07:33:27;6.60;54.80
4097;DHT22;2062;50.694;7.246;2023-04-03T07:35:54;6.90;55.30
4097;DHT22;2062;50.694;7.246;2023-04-03T07:38:21;7.20;54.60
4097;DHT22;2062;50.694;7.246;2023-04-03T07:40:49;7.50;54.00
4097;DHT22;2062;50.694;7.246;2023-04-03T07:43:19;7.70;53.00
4097;DHT22;2062;50.694;7.246;2023-04-03T07:45:46;8.00;52.00
4097;DHT22;2062;50.694;7.246;2023-04-03T07:48:16;8.20;51.60
4097;DHT22;2062;50.694;7.246;2023-04-03T07:50:44;8.40;51.70
4097;DHT22;2062;50.694;7.246;2023-04-03T07:53:11;8.70;51.20
4097;DHT22;2062;50.694;7.246;2023-04-03T07:55:39;8.80;50.70
4097;DHT22;2062;50.694;7.246;2023-04-03T07:58:09;9.00;50.20
4097;DHT22;2062;50.694;7.246;2023-04-03T08:00:37;9.10;49.30
4097;DHT22;2062;50.694;7.246;2023-04-03T08:03:04;9.30;49.30
4097;DHT22;2062;50.694;7.246;2023-04-03T08:05:34;9.50;48.90
4097;DHT22;2062;50.694;7.246;2023-04-03T08:08:04;9.70;48.70
4097;DHT22;2062;50.694;7.246;2023-04-03T08:10:31;9.80;47.90
4097;DHT22;2062;50.694;7.246;2023-04-03T08:12:58;10.00;47.90
4097;DHT22;2062;50.694;7.246;2023-04-03T08:15:25;10.10;47.00
4097;DHT22;2062;50.694;7.246;2023-04-03T08:17:52;10.20;47.00
4097;DHT22;2062;50.694;7.246;2023-04-03T08:20:19;10.40;46.90
4097;DHT22;2062;50.694;7.246;2023-04-03T08:22:46;10.60;47.70
4097;DHT22;2062;50.694;7.246;2023-04-03T08:25:15;10.70;47.00
4097;DHT22;2062;50.694;7.246;2023-04-03T08:27:43;10.80;45.80
4097;DHT22;2062;50.694;7.246;2023-04-03T08:30:11;10.90;45.20
4097;DHT22;2062;50.694;7.246;2023-04-03T08:32:37;11.00;44.70
4097;DHT22;2062;50.694;7.246;2023-04-03T08:35:05;11.10;45.40
4097;DHT22;2062;50.694;7.246;2023-04-03T08:37:35;11.20;44.80
4097;DHT22;2062;50.694;7.246;2023-04-03T08:40:02;11.30;44.30
4097;DHT22;2062;50.694;7.246;2023-04-03T08:42:38;11.40;45.10
4097;DHT22;2062;50.694;7.246;2023-04-03T08:45:12;11.50;45.00
4097;DHT22;2062;50.694;7.246;2023-04-03T08:47:44;11.60;45.20
4097;DHT22;2062;50.694;7.246;2023-04-03T08:50:16;11.70;45.00
4097;DHT22;2062;50.694;7.246;2023-04-03T08:52:46;11.90;45.10
4097;DHT22;2062;50.694;7.246;2023-04-03T08:55:22;11.90;44.30
4097;DHT22;2062;50.694;7.246;2023-04-03T08:57:58;12.00;44.00
4097;DHT22;2062;50.694;7.246;2023-04-03T09:00:28;12.10;43.70
4097;DHT22;2062;50.694;7.246;2023-04-03T09:02:56;12.30;43.20
4097;DHT22;2062;50.694;7.246;2023-04-03T09:05:34;12.30;42.90
4097;DHT22;2062;50.694;7.246;2023-04-03T09:08:07;12.40;42.50
4097;DHT22;2062;50.694;7.246;2023-04-03T09:10:37;12.50;41.80
4097;DHT22;2062;50.694;7.246;2023-04-03T09:13:12;12.50;41.90
4097;DHT22;2062;50.694;7.246;2023-04-03T09:15:41;12.60;41.30
4097;DHT22;2062;50.694;7.246;2023-04-03T09:18:15;12.70;41.80
4097;DHT22;2062;50.694;7.246;2023-04-03T09:20:46;12.70;42.00
4097;DHT22;2062;50.694;7.246;2023-04-03T09:23:22;12.80;40.30
4097;DHT22;2062;50.694;7.246;2023-04-03T09:25:54;12.90;39.40
4097;DHT22;2062;50.694;7.246;2023-04-03T09:28:24;12.90;39.80
4097;DHT22;2062;50.694;7.246;2023-04-03T09:30:51;13.00;41.70
4097;DHT22;2062;50.694;7.246;2023-04-03T09:33:18;13.00;40.10
4097;DHT22;2062;50.694;7.246;2023-04-03T09:35:47;13.10;39.80
4097;DHT22;2062;50.694;7.246;2023-04-03T09:38:18;13.20;39.50
4097;DHT22;2062;50.694;7.246;2023-04-03T09:40:45;13.20;39.60
4097;DHT22;2062;50.694;7.246;2023-04-03T09:43:26;13.20;39.10
4097;DHT22;2062;50.694;7.246;2023-04-03T09:45:54;13.20;38.50
4097;DHT22;2062;50.694;7.246;2023-04-03T09:48:23;13.20;37.40
4097;DHT22;2062;50.694;7.246;2023-04-03T09:51:01;13.20;37.40
4097;DHT22;2062;50.694;7.246;2023-04-03T09:53:34;13.20;37.10
4097;DHT22;2062;50.694;7.246;2023-04-03T09:56:04;13.20;37.10
4097;DHT22;2062;50.694;7.246;2023-04-03T09:58:36;13.20;38.00
4097;DHT22;2062;50.694;7.246;2023-04-03T10:01:04;13.20;38.10
4097;DHT22;2062;50.694;7.246;2023-04-03T10:03:34;13.20;38.20
4097;DHT22;2062;50.694;7.246;2023-04-03T10:06:03;13.30;39.00
4097;DHT22;2062;50.694;7.246;2023-04-03T10:08:31;13.30;38.40
4097;DHT22;2062;50.694;7.246;2023-04-03T10:11:12;13.30;37.90
4097;DHT22;2062;50.694;7.246;2023-04-03T10:13:58;13.40;37.70
4097;DHT22;2062;50.694;7.246;2023-04-03T10:16:38;13.40;38.20
4097;DHT22;2062;50.694;7.246;2023-04-03T10:19:23;13.40;38.30
4097;DHT22;2062;50.694;7.246;2023-04-03T10:21:58;13.50;37.40
4097;DHT22;2062;50.694;7.246;2023-04-03T10:24:34;13.50;36.50
4097;DHT22;2062;50.694;7.246;2023-04-03T10:27:07;13.50;37.00
4097;DHT22;2062;50.694;7.246;2023-04-03T10:29:44;13.50;36.00
4097;DHT22;2062;50.694;7.246;2023-04-03T10:32:26;13.50;36.60
4097;DHT22;2062;50.694;7.246;2023-04-03T10:35:02;13.50;36.50
4097;DHT22;2062;50.694;7.246;2023-04-03T10:37:44;13.50;36.50
4097;DHT22;2062;50.694;7.246;2023-04-03T10:40:24;13.50;36.50
4097;DHT22;2062;50.694;7.246;2023-04-03T10:43:02;13.60;34.70
4097;DHT22;2062;50.694;7.246;2023-04-03T10:45:45;13.60;35.60
4097;DHT22;2062;50.694;7.246;2023-04-03T10:48:17;13.60;37.20
4097;DHT22;2062;50.694;7.246;2023-04-03T10:50:52;13.60;37.20
4097;DHT22;2062;50.694;7.246;2023-04-03T10:53:28;13.70;37.70
4097;DHT22;2062;50.694;7.246;2023-04-03T10:56:03;13.80;37.00
4097;DHT22;2062;50.694;7.246;2023-04-03T10:58:34;13.80;37.50
4097;DHT22;2062;50.694;7.246;2023-04-03T11:01:09;13.80;36.00
4097;DHT22;2062;50.694;7.246;2023-04-03T11:03:41;13.80;35.10
4097;DHT22;2062;50.694;7.246;2023-04-03T11:06:13;13.80;35.80
4097;DHT22;2062;50.694;7.246;2023-04-03T11:08:45;13.80;35.80
4097;DHT22;2062;50.694;7.246;2023-04-03T11:11:16;13.90;34.60
4097;DHT22;2062;50.694;7.246;2023-04-03T11:13:49;13.80;33.40
4097;DHT22;2062;50.694;7.246;2023-04-03T11:16:22;13.80;35.10
4097;DHT22;2062;50.694;7.246;2023-04-03T11:18:52;13.80;36.30
4097;DHT22;2062;50.694;7.246;2023-04-03T11:21:26;13.80;35.80
4097;DHT22;2062;50.694;7.246;2023-04-03T11:23:57;13.80;35.60
4097;DHT22;2062;50.694;7.246;2023-04-03T11:26:31;13.90;34.90
4097;DHT22;2062;50.694;7.246;2023-04-03T11:29:21;13.80;34.90
4097;DHT22;2062;50.694;7.246;2023-04-03T11:32:05;14.00;36.20
4097;DHT22;2062;50.694;7.246;2023-04-03T11:34:37;13.90;36.60
4097;DHT22;2062;50.694;7.246;2023-04-03T11:37:13;13.90;36.10
4097;DHT22;2062;50.694;7.246;2023-04-03T11:39:49;13.90;34.70
4097;DHT22;2062;50.694;7.246;2023-04-03T11:42:29;13.90;33.40
4097;DHT22;2062;50.694;7.246;2023-04-03T11:48:47;13.90;35.40
4097;DHT22;2062;50.694;7.246;2023-04-03T11:50:57;13.80;35.40
4097;DHT22;2062;50.694;7.246;2023-04-03T11:53:33;13.90;35.80
4097;DHT22;2062;50.694;7.246;2023-04-03T11:56:29;13.90;35.70
4097;DHT22;2062;50.694;7.246;2023-04-03T11:59:19;13.90;36.20
4097;DHT22;2062;50.694;7.246;2023-04-03T12:01:49;14.00;33.70
4097;DHT22;2062;50.694;7.246;2023-04-03T12:04:19;14.00;34.20
4097;DHT22;2062;50.694;7.246;2023-04-03T12:09:56;14.10;34.70
4097;DHT22;2062;50.694;7.246;2023-04-03T12:12:39;14.20;36.00
4097;DHT22;2062;50.694;7.246;2023-04-03T12:18:40;14.30;35.80
4097;DHT22;2062;50.694;7.246;2023-04-03T12:21:09;14.30;34.50
4097;DHT22;2062;50.694;7.246;2023-04-03T12:23:36;14.30;33.90
4097;DHT22;2062;50.694;7.246;2023-04-03T12:26:24;14.30;33.90
4097;DHT22;2062;50.694;7.246;2023-04-03T12:28:53;14.40;33.80
4097;DHT22;2062;50.694;7.246;2023-04-03T12:31:24;14.40;34.10
4097;DHT22;2062;50.694;7.246;2023-04-03T12:34:04;14.50;32.40
4097;DHT22;2062;50.694;7.246;2023-04-03T12:36:45;14.50;34.00
4097;DHT22;2062;50.694;7.246;2023-04-03T12:39:33;14.50;33.20
4097;DHT22;2062;50.694;7.246;2023-04-03T12:42:11;14.50;32.60
4097;DHT22;2062;50.694;7.246;2023-04-03T12:44:48;14.50;32.90
4097;DHT22;2062;50.694;7.246;2023-04-03T12:47:23;14.50;31.10
4097;DHT22;2062;50.694;7.246;2023-04-03T12:49:52;14.40;32.20
4097;DHT22;2062;50.694;7.246;2023-04-03T12:52:30;14.50;30.50
4097;DHT22;2062;50.694;7.246;2023-04-03T12:55:00;14.40;31.90
4097;DHT22;2062;50.694;7.246;2023-04-03T12:57:30;14.50;32.00
4097;DHT22;2062;50.694;7.246;2023-04-03T12:59:58;14.50;31.50
4097;DHT22;2062;50.694;7.246;2023-04-03T13:02:26;14.40;30.90
4097;DHT22;2062;50.694;7.246;2023-04-03T13:04:55;14.40;31.30
4097;DHT22;2062;50.694;7.246;2023-04-03T13:07:28;14.50;31.90
4097;DHT22;2062;50.694;7.246;2023-04-03T13:10:04;14.50;32.60
4097;DHT22;2062;50.694;7.246;2023-04-03T13:12:31;14.60;32.60
4097;DHT22;2062;50.694;7.246;2023-04-03T13:15:00;14.70;32.30
4097;DHT22;2062;50.694;7.246;2023-04-03T13:17:29;14.70;33.20
4097;DHT22;2062;50.694;7.246;2023-04-03T13:20:10;14.80;32.30
4097;DHT22;2062;50.694;7.246;2023-04-03T13:22:42;14.80;32.10
4097;DHT22;2062;50.694;7.246;2023-04-03T13:25:16;14.90;32.70
4097;DHT22;2062;50.694;7.246;2023-04-03T13:27:43;14.90;32.90
4097;DHT22;2062;50.694;7.246;2023-04-03T13:30:25;15.00;33.10
4097;DHT22;2062;50.694;7.246;2023-04-03T13:32:53;15.00;33.00
4097;DHT22;2062;50.694;7.246;2023-04-03T13:35:32;15.10;33.20
4097;DHT22;2062;50.694;7.246;2023-04-03T13:38:04;15.20;33.40
4097;DHT22;2062;50.694;7.246;2023-04-03T13:40:31;15.30;32.70
4097;DHT22;2062;50.694;7.246;2023-04-03T13:43:00;15.40;32.80
4097;DHT22;2062;50.694;7.246;2023-04-03T13:45:28;15.40;32.10
4097;DHT22;2062;50.694;7.246;2023-04-03T13:48:09;15.40;32.20
4097;DHT22;2062;50.694;7.246;2023-04-03T13:50:56;15.40;31.80
4097;DHT22;2062;50.694;7.246;2023-04-03T13:53:26;15.50;32.00
4097;DHT22;2062;50.694;7.246;2023-04-03T13:55:57;15.60;32.00
4097;DHT22;2062;50.694;7.246;2023-04-03T13:58:25;15.50;32.40
4097;DHT22;2062;50.694;7.246;2023-04-03T14:00:54;15.60;31.40
4097;DHT22;2062;50.694;7.246;2023-04-03T14:03:23;15.60;31.70
4097;DHT22;2062;50.694;7.246;2023-04-03T14:05:52;15.60;31.90
4097;DHT22;2062;50.694;7.246;2023-04-03T14:08:20;15.70;32.30
4097;DHT22;2062;50.694;7.246;2023-04-03T14:10:49;15.70;31.30
4097;DHT22;2062;50.694;7.246;2023-04-03T14:13:19;15.80;31.40
4097;DHT22;2062;50.694;7.246;2023-04-03T14:15:46;15.70;31.20
4097;DHT22;2062;50.694;7.246;2023-04-03T14:18:16;15.70;31.10
4097;DHT22;2062;50.694;7.246;2023-04-03T14:20:43;15.70;30.20
4097;DHT22;2062;50.694;7.246;2023-04-03T14:23:10;15.70;30.30
4097;DHT22;2062;50.694;7.246;2023-04-03T14:25:37;15.70;30.90
4097;DHT22;2062;50.694;7.246;2023-04-03T14:28:16;15.70;31.90
4097;DHT22;2062;50.694;7.246;2023-04-03T14:30:44;15.70;30.80
4097;DHT22;2062;50.694;7.246;2023-04-03T14:33:14;15.70;32.10
4097;DHT22;2062;50.694;7.246;2023-04-03T14:35:41;15.80;31.50
4097;DHT22;2062;50.694;7.246;2023-04-03T14:38:22;15.90;31.60
4097;DHT22;2062;50.694;7.246;2023-04-03T14:40:49;15.90;31.40
4097;DHT22;2062;50.694;7.246;2023-04-03T14:43:18;15.80;31.40
4097;DHT22;2062;50.694;7.246;2023-04-03T14:45:45;15.90;31.00
4097;DHT22;2062;50.694;7.246;2023-04-03T14:48:17;15.90;32.20
4097;DHT22;2062;50.694;7.246;2023-04-03T14:50:45;15.90;31.70
4097;DHT22;2062;50.694;7.246;2023-04-03T14:53:12;15.90;30.70
4097;DHT22;2062;50.694;7.246;2023-04-03T14:55:40;15.90;30.50
4097;DHT22;2062;50.694;7.246;2023-04-03T14:58:11;15.90;30.30
4097;DHT22;2062;50.694;7.246;2023-04-03T15:00:40;15.90;30.30
4097;DHT22;2062;50.694;7.246;2023-04-03T15:03:12;15.90;31.20
4097;DHT22;2062;50.694;7.246;2023-04-03T15:05:39;15.90;30.20
4097;DHT22;2062;50.694;7.246;2023-04-03T15:08:16;15.80;30.30
4097;DHT22;2062;50.694;7.246;2023-04-03T15:10:44;15.90;30.20
4097;DHT22;2062;50.694;7.246;2023-04-03T15:13:12;15.90;30.80
4097;DHT22;2062;50.694;7.246;2023-04-03T15:15:41;15.80;30.00
4097;DHT22;2062;50.694;7.246;2023-04-03T15:18:14;15.80;31.20
4097;DHT22;2062;50.694;7.246;2023-04-03T15:20:42;15.80;31.00
4097;DHT22;2062;50.694;7.246;2023-04-03T15:23:10;15.80;30.00
4097;DHT22;2062;50.694;7.246;2023-04-03T15:25:37;15.80;30.10
4097;DHT22;2062;50.694;7.246;2023-04-03T15:28:05;15.70;29.70
4097;DHT22;2062;50.694;7.246;2023-04-03T15:30:32;15.80;30.00
4097;DHT22;2062;50.694;7.246;2023-04-03T15:33:00;15.70;30.00
4097;DHT22;2062;50.694;7.246;2023-04-03T15:35:27;15.70;29.50
4097;DHT22;2062;50.694;7.246;2023-04-03T15:37:54;15.60;29.40
4097;DHT22;2062;50.694;7.246;2023-04-03T15:40:21;15.60;29.70
4097;DHT22;2062;50.694;7.246;2023-04-03T15:42:48;15.60;29.00
4097;DHT22;2062;50.694;7.246;2023-04-03T15:45:15;15.60;29.20
4097;DHT22;2062;50.694;7.246;2023-04-03T15:47:42;15.50;29.50
4097;DHT22;2062;50.694;7.246;2023-04-03T15:50:11;15.40;29.50
4097;DHT22;2062;50.694;7.246;2023-04-03T15:52:37;15.40;29.80
4097;DHT22;2062;50.694;7.246;2023-04-03T15:55:05;15.40;29.60
4097;DHT22;2062;50.694;7.246;2023-04-03T15:57:32;15.40;29.40
4097;DHT22;2062;50.694;7.246;2023-04-03T15:59:59;15.30;29.10
4097;DHT22;2062;50.694;7.246;2023-04-03T16:02:26;15.20;29.10
4097;DHT22;2062;50.694;7.246;2023-04-03T16:04:54;15.20;29.00
4097;DHT22;2062;50.694;7.246;2023-04-03T16:07:22;15.10;29.00
4097;DHT22;2062;50.694;7.246;2023-04-03T16:09:49;15.10;29.10
4097;DHT22;2062;50.694;7.246;2023-04-03T16:12:16;15.00;29.50
4097;DHT22;2062;50.694;7.246;2023-04-03T16:14:43;15.00;29.10
4097;DHT22;2062;50.694;7.246;2023-04-03T16:17:10;15.10;28.20
4097;DHT22;2062;50.694;7.246;2023-04-03T16:19:37;14.90;28.50
4097;DHT22;2062;50.694;7.246;2023-04-03T16:22:04;14.80;28.10
4097;DHT22;2062;50.694;7.246;2023-04-03T16:24:32;14.70;28.20
4097;DHT22;2062;50.694;7.246;2023-04-03T16:27:01;14.80;27.40
4097;DHT22;2062;50.694;7.246;2023-04-03T16:29:28;14.50;27.10
4097;DHT22;2062;50.694;7.246;2023-04-03T16:31:54;14.50;27.70
4097;DHT22;2062;50.694;7.246;2023-04-03T16:34:21;14.40;28.20
4097;DHT22;2062;50.694;7.246;2023-04-03T16:36:48;14.30;28.10